OERF

Rafha Domestic Airport

Rafha, Saudi Arabia
TAF OERF 192300Z 2000/2106 VRB03KT 7000 NSC TEMPO 2006/2012 4000 DU BECMG 2006/2008 12010KT
Issued Valid From Valid To
Jan-19 @ 23:00 UTC
(12 hours ago)
Jan-20 @ 00:00 UTC
(11 hours ago)
Jan-21 @ 06:00 UTC
(in 19 hours)
Expired Click to View Jan-20 @ 00:00 to Jan-20 @ 06:00
TAF OERF 192300Z 2000/2106 VRB03KT 7000 NSC
Wind Visibility Clouds
Variable at 3 knots 7,001 meters
  • No significant clouds
Temporary Jan-20 @ 06:00 to Jan-20 @ 12:00
TEMPO 2006/2012 4000 DU
Visibility Conditions
4,007 meters
  • Dust
Becoming Jan-20 @ 06:00 to Jan-21 @ 06:00
BECMG 2006/2008 12010KT
Wind Visibility Clouds
120° at 10 knots 7,001 meters
  • No significant clouds
TAF OERF 192300Z 2000/2106 VRB03KT 7000 NSC TEMPO 2006/2012 4000 DU BECMG 2006/2008 12010KT
Issued Jan-19 @ 23:00 UTC
(12 hours ago)
Valid From Jan-20 @ 00:00 UTC
(11 hours ago)
Valid To Jan-21 @ 06:00 UTC
(in 19 hours)
Jan-20 @ 00:00 - Jan-20 @ 06:00
Wind Visibility
Variable at 3 knots 7,001 meters
Clouds
  • No significant clouds
Temporary Jan-20 @ 06:00 - Jan-20 @ 12:00
Conditions
  • Dust
Becoming Jan-20 @ 06:00 - Jan-21 @ 06:00
Wind Visibility
120° at 10 knots 7,001 meters
Clouds
  • No significant clouds